PWSweather.com
Personal Weather Stations
Station Observations
SHAHALMS1
Eftra, Falkenberg, HA

EftraFalkenberg, HA

Lat: 56.85, Lon: 12.65

Elevation: 140

Station Type:

http://hem.passagen.se/risarp101

High Low Average
Temperature 52.3°F11.3°C 38.8°F3.8°C 45.0°F7.2°C
Dew Point 39.9°F4.4°C 32.1°F0.1°C 35.9°F2.2°C
Winds 9.1 mph 14.6 kmh Calm Calm 4.0 mph WNW6.4 kmh WNW
Wind Gusts 21.5 mph34.6 kmh -- 11.0 mph17.7 kmh
Humidity 83% 54% 71%
Pressure 29.95 in1014.2 mb 29.30 in992.2 mb -
Precipitation 0.05 in1.3 mm - -
Hour Temp Dew Point Humidity Winds Wind Gusts Pressure Precip Precip Rate Daily Precip Total
12:00 AM 45.3°F7.4°C 39.2°F4.0°C 79% 7.6 mph NW12.2 kmh NW 17.5 mph28.2 kmh 29.33 in993.2 mb 0.05 in1.3 mm 0.00 in0.0 mm 0.05 in1.3 mm
12:15 AM 44.8°F7.1°C 38.7°F3.7°C 79% 5.3 mph NW8.5 kmh NW 10.4 mph16.7 kmh 29.30 in992.2 mb 0.05 in1.3 mm 0.00 in0.0 mm 0.05 in1.3 mm
12:30 AM 44.4°F6.9°C 38.0°F3.3°C 78% 5.2 mph NW8.4 kmh NW 13.6 mph21.9 kmh 29.33 in993.2 mb 0.05 in1.3 mm 0.00 in0.0 mm 0.05 in1.3 mm
12:45 AM 44.1°F6.7°C 37.0°F2.8°C 76% 8.3 mph NNW13.4 kmh NNW 20.8 mph33.5 kmh 29.33 in993.2 mb 0.05 in1.3 mm 0.00 in0.0 mm 0.05 in1.3 mm
01:00 AM 43.5°F6.4°C 36.5°F2.5°C 76% 7.3 mph NNW11.7 kmh NNW 16.1 mph25.9 kmh 29.36 in994.2 mb 0.00 in0.0 mm 0.00 in0.0 mm 0.05 in1.3 mm
01:15 AM 43.2°F6.2°C 36.4°F2.4°C 77% 6.1 mph NNW9.8 kmh NNW 12.9 mph20.8 kmh 29.36 in994.2 mb 0.00 in0.0 mm 0.00 in0.0 mm 0.05 in1.3 mm
01:30 AM 42.8°F6.0°C 36.1°F2.3°C 77% 5.4 mph NNW8.7 kmh NNW 13.6 mph21.9 kmh 29.39 in995.3 mb 0.00 in0.0 mm 0.00 in0.0 mm 0.05 in1.3 mm
01:45 AM 42.3°F5.7°C 35.9°F2.2°C 78% 5.1 mph N8.2 kmh N 13.6 mph21.9 kmh 29.41 in995.9 mb 0.00 in0.0 mm 0.00 in0.0 mm 0.05 in1.3 mm
02:00 AM 41.9°F5.5°C 35.5°F1.9°C 78% 5.6 mph N9.0 kmh N 14.0 mph22.5 kmh 29.39 in995.3 mb 0.00 in0.0 mm 0.00 in0.0 mm 0.05 in1.3 mm
02:15 AM 41.5°F5.3°C 35.2°F1.8°C 78% 4.1 mph NNW6.6 kmh NNW 12.2 mph19.6 kmh 29.39 in995.3 mb 0.00 in0.0 mm 0.00 in0.0 mm 0.05 in1.3 mm
02:30 AM 41.2°F5.1°C 34.8°F1.6°C 78% 1.7 mph NW2.7 kmh NW 5.7 mph9.2 kmh 29.39 in995.3 mb 0.00 in0.0 mm 0.00 in0.0 mm 0.05 in1.3 mm
02:45 AM 40.8°F4.9°C 34.8°F1.6°C 79% 1.4 mph WNW2.3 kmh WNW 6.1 mph9.8 kmh 29.41 in995.9 mb 0.00 in0.0 mm 0.00 in0.0 mm 0.05 in1.3 mm
03:00 AM 40.6°F4.8°C 34.6°F1.4°C 79% 2.5 mph NW4.0 kmh NW 5.7 mph9.2 kmh 29.45 in997.3 mb 0.00 in0.0 mm 0.00 in0.0 mm 0.05 in1.3 mm
03:15 AM 40.6°F4.8°C 34.6°F1.4°C 79% 2.9 mph WNW4.7 kmh WNW 10.0 mph16.1 kmh 29.45 in997.3 mb 0.00 in0.0 mm 0.00 in0.0 mm 0.05 in1.3 mm
03:30 AM 40.6°F4.8°C 35.0°F1.7°C 80% 2.4 mph WNW3.9 kmh WNW 8.9 mph14.3 kmh 29.45 in997.3 mb 0.00 in0.0 mm 0.00 in0.0 mm 0.05 in1.3 mm
03:45 AM 40.3°F4.6°C 34.6°F1.4°C 80% 3.2 mph W5.1 kmh W 7.2 mph11.6 kmh 29.45 in997.3 mb 0.00 in0.0 mm 0.00 in0.0 mm 0.05 in1.3 mm
04:00 AM 39.9°F4.4°C 34.2°F1.2°C 80% 1.9 mph W3.1 kmh W 5.7 mph9.2 kmh 29.45 in997.3 mb 0.00 in0.0 mm 0.00 in0.0 mm 0.05 in1.3 mm
04:15 AM 39.6°F4.2°C 33.9°F1.1°C 80% 2.0 mph WNW3.2 kmh WNW 5.7 mph9.2 kmh 29.47 in998.0 mb 0.00 in0.0 mm 0.00 in0.0 mm 0.05 in1.3 mm
04:30 AM 39.4°F4.1°C 33.7°F0.9°C 80% 1.8 mph NW2.9 kmh NW 4.7 mph7.6 kmh 29.50 in999.0 mb 0.00 in0.0 mm 0.00 in0.0 mm 0.05 in1.3 mm
04:45 AM 39.4°F4.1°C 34.0°F1.1°C 81% 1.8 mph NW2.9 kmh NW 5.4 mph8.7 kmh 29.50 in999.0 mb 0.00 in0.0 mm 0.00 in0.0 mm 0.05 in1.3 mm
05:00 AM 39.4°F4.1°C 34.0°F1.1°C 81% 1.1 mph NW1.8 kmh NW 6.1 mph9.8 kmh 29.50 in999.0 mb 0.00 in0.0 mm 0.00 in0.0 mm 0.05 in1.3 mm
05:15 AM 39.4°F4.1°C 34.0°F1.1°C 81% 0.9 mph NW1.4 kmh NW 4.3 mph6.9 kmh 29.50 in999.0 mb 0.00 in0.0 mm 0.00 in0.0 mm 0.05 in1.3 mm
05:30 AM 39.2°F4.0°C 33.9°F1.1°C 81% 2.0 mph NW3.2 kmh NW 6.4 mph10.3 kmh 29.53 in1000.0 mb 0.00 in0.0 mm 0.00 in0.0 mm 0.05 in1.3 mm
05:45 AM 38.8°F3.8°C 33.5°F0.8°C 81% 1.8 mph WNW2.9 kmh WNW 6.4 mph10.3 kmh 29.53 in1000.0 mb 0.00 in0.0 mm 0.00 in0.0 mm 0.05 in1.3 mm
06:00 AM 38.8°F3.8°C 33.8°F1.0°C 82% 3.1 mph WNW5.0 kmh WNW 6.4 mph10.3 kmh 29.56 in1001.0 mb 0.00 in0.0 mm 0.00 in0.0 mm 0.05 in1.3 mm
06:15 AM 38.8°F3.8°C 33.8°F1.0°C 82% 1.6 mph NW2.6 kmh NW 5.7 mph9.2 kmh 29.56 in1001.0 mb 0.00 in0.0 mm 0.00 in0.0 mm 0.05 in1.3 mm
06:30 AM 38.8°F3.8°C 33.8°F1.0°C 82% 1.3 mph NW2.1 kmh NW 5.4 mph8.7 kmh 29.53 in1000.0 mb 0.00 in0.0 mm 0.00 in0.0 mm 0.05 in1.3 mm
06:45 AM 38.8°F3.8°C 33.8°F1.0°C 82% 0.9 mph NW1.4 kmh NW 5.4 mph8.7 kmh 29.56 in1001.0 mb 0.00 in0.0 mm 0.00 in0.0 mm 0.05 in1.3 mm
07:00 AM 38.8°F3.8°C 33.8°F1.0°C 82% 1.4 mph WNW2.3 kmh WNW 7.9 mph12.7 kmh 29.59 in1002.0 mb 0.00 in0.0 mm 0.00 in0.0 mm 0.05 in1.3 mm
07:15 AM 39.4°F4.1°C 34.6°F1.4°C 83% 3.2 mph NW5.1 kmh NW 6.8 mph10.9 kmh 29.59 in1002.0 mb 0.00 in0.0 mm 0.00 in0.0 mm 0.05 in1.3 mm
07:30 AM 39.7°F4.3°C 35.0°F1.7°C 83% 3.7 mph NNW6.0 kmh NNW 7.9 mph12.7 kmh 29.62 in1003.0 mb 0.00 in0.0 mm 0.00 in0.0 mm 0.05 in1.3 mm
07:45 AM 40.5°F4.7°C 35.7°F2.1°C 83% 4.7 mph NNW7.6 kmh NNW 9.3 mph15.0 kmh 29.62 in1003.0 mb 0.00 in0.0 mm 0.00 in0.0 mm 0.05 in1.3 mm
08:00 AM 41.2°F5.1°C 36.4°F2.4°C 83% 6.0 mph NNW9.7 kmh NNW 13.6 mph21.9 kmh 29.62 in1003.0 mb 0.00 in0.0 mm 0.00 in0.0 mm 0.05 in1.3 mm
08:15 AM 41.5°F5.3°C 36.5°F2.5°C 82% 5.9 mph NNW9.5 kmh NNW 15.7 mph25.3 kmh 29.65 in1004.1 mb 0.00 in0.0 mm 0.00 in0.0 mm 0.05 in1.3 mm
08:30 AM 41.4°F5.2°C 36.0°F2.2°C 81% 5.4 mph NNW8.7 kmh NNW 12.9 mph20.8 kmh 29.65 in1004.1 mb 0.00 in0.0 mm 0.00 in0.0 mm 0.05 in1.3 mm
08:45 AM 41.9°F5.5°C 36.5°F2.5°C 81% 5.4 mph NW8.7 kmh NW 16.5 mph26.6 kmh 29.68 in1005.1 mb 0.00 in0.0 mm 0.00 in0.0 mm 0.05 in1.3 mm
09:00 AM 42.3°F5.7°C 36.8°F2.7°C 81% 5.2 mph N8.4 kmh N 12.9 mph20.8 kmh 29.65 in1004.1 mb 0.00 in0.0 mm 0.00 in0.0 mm 0.05 in1.3 mm
09:15 AM 42.8°F6.0°C 37.1°F2.8°C 80% 5.3 mph N8.5 kmh N 10.4 mph16.7 kmh 29.68 in1005.1 mb 0.00 in0.0 mm 0.00 in0.0 mm 0.05 in1.3 mm
09:30 AM 43.3°F6.3°C 37.6°F3.1°C 80% 6.3 mph NW10.1 kmh NW 10.4 mph16.7 kmh 29.71 in1006.1 mb 0.00 in0.0 mm 0.00 in0.0 mm 0.05 in1.3 mm
09:45 AM 43.9°F6.6°C 37.8°F3.2°C 79% 4.0 mph NW6.4 kmh NW 6.8 mph10.9 kmh 29.71 in1006.1 mb 0.00 in0.0 mm 0.00 in0.0 mm 0.05 in1.3 mm
10:00 AM 44.2°F6.8°C 37.8°F3.2°C 78% 5.8 mph NW9.3 kmh NW 12.9 mph20.8 kmh 29.74 in1007.1 mb 0.00 in0.0 mm 0.00 in0.0 mm 0.05 in1.3 mm
10:15 AM 44.8°F7.1°C 38.3°F3.5°C 78% 4.5 mph NW7.2 kmh NW 8.9 mph14.3 kmh 29.74 in1007.1 mb 0.00 in0.0 mm 0.00 in0.0 mm 0.05 in1.3 mm
10:30 AM 45.1°F7.3°C 38.7°F3.7°C 78% 4.2 mph NW6.8 kmh NW 11.5 mph18.5 kmh 29.71 in1006.1 mb 0.00 in0.0 mm 0.00 in0.0 mm 0.05 in1.3 mm
10:45 AM 45.7°F7.6°C 38.9°F3.8°C 77% 4.0 mph NW6.4 kmh NW 9.7 mph15.6 kmh 29.74 in1007.1 mb 0.00 in0.0 mm 0.00 in0.0 mm 0.05 in1.3 mm
11:00 AM 45.9°F7.7°C 38.7°F3.7°C 76% 5.8 mph NW9.3 kmh NW 13.6 mph21.9 kmh 29.77 in1008.1 mb 0.00 in0.0 mm 0.00 in0.0 mm 0.05 in1.3 mm
11:15 AM 46.4°F8.0°C 38.9°F3.8°C 75% 5.1 mph NW8.2 kmh NW 11.1 mph17.9 kmh 29.80 in1009.1 mb 0.00 in0.0 mm 0.00 in0.0 mm 0.05 in1.3 mm
11:30 AM 46.9°F8.3°C 39.1°F3.9°C 74% 5.0 mph NNW8.0 kmh NNW 12.2 mph19.6 kmh 29.80 in1009.1 mb 0.00 in0.0 mm 0.00 in0.0 mm 0.05 in1.3 mm
11:45 AM 47.1°F8.4°C 38.9°F3.8°C 73% 4.7 mph NNW7.6 kmh NNW 11.8 mph19.0 kmh 29.80 in1009.1 mb 0.00 in0.0 mm 0.00 in0.0 mm 0.05 in1.3 mm
12:00 PM 47.8°F8.8°C 38.5°F3.6°C 70% 6.4 mph NNW10.3 kmh NNW 17.2 mph27.7 kmh 29.77 in1008.1 mb 0.00 in0.0 mm 0.00 in0.0 mm 0.05 in1.3 mm
12:15 PM 48.2°F9.0°C 37.8°F3.2°C 67% 6.7 mph NW10.8 kmh NW 13.6 mph21.9 kmh 29.80 in1009.1 mb 0.00 in0.0 mm 0.00 in0.0 mm 0.05 in1.3 mm
12:30 PM 48.9°F9.4°C 38.4°F3.6°C 67% 6.3 mph NW10.1 kmh NW 16.8 mph27.0 kmh 29.80 in1009.1 mb 0.00 in0.0 mm 0.00 in0.0 mm 0.05 in1.3 mm
12:45 PM 49.6°F9.8°C 38.7°F3.7°C 66% 7.3 mph NNW11.7 kmh NNW 15.7 mph25.3 kmh 29.83 in1010.2 mb 0.00 in0.0 mm 0.00 in0.0 mm 0.05 in1.3 mm
01:00 PM 50.7°F10.4°C 39.8°F4.3°C 66% 6.3 mph NNW10.1 kmh NNW 16.8 mph27.0 kmh 29.83 in1010.2 mb 0.00 in0.0 mm 0.00 in0.0 mm 0.05 in1.3 mm
01:15 PM 50.7°F10.4°C 38.2°F3.4°C 62% 7.3 mph NNW11.7 kmh NNW 15.4 mph24.8 kmh 29.83 in1010.2 mb 0.00 in0.0 mm 0.00 in0.0 mm 0.05 in1.3 mm
01:30 PM 50.4°F10.2°C 37.8°F3.2°C 62% 7.2 mph NW11.6 kmh NW 17.5 mph28.2 kmh 29.83 in1010.2 mb 0.00 in0.0 mm 0.00 in0.0 mm 0.05 in1.3 mm
01:45 PM 50.7°F10.4°C 37.8°F3.2°C 61% 7.8 mph NW12.6 kmh NW 15.4 mph24.8 kmh 29.83 in1010.2 mb 0.00 in0.0 mm 0.00 in0.0 mm 0.05 in1.3 mm
02:00 PM 52.2°F11.2°C 39.9°F4.4°C 63% 7.7 mph NNW12.4 kmh NNW 16.1 mph25.9 kmh 29.83 in1010.2 mb 0.00 in0.0 mm 0.00 in0.0 mm 0.05 in1.3 mm
02:15 PM 52.3°F11.3°C 39.3°F4.1°C 61% 9.1 mph NW14.6 kmh NW 20.4 mph32.8 kmh 29.86 in1011.2 mb 0.00 in0.0 mm 0.00 in0.0 mm 0.05 in1.3 mm
02:30 PM 52.0°F11.1°C 36.8°F2.7°C 56% 8.2 mph NW13.2 kmh NW 17.5 mph28.2 kmh 29.86 in1011.2 mb 0.00 in0.0 mm 0.00 in0.0 mm 0.05 in1.3 mm
02:45 PM 52.0°F11.1°C 37.2°F2.9°C 57% 7.9 mph NW12.7 kmh NW 21.5 mph34.6 kmh 29.86 in1011.2 mb 0.00 in0.0 mm 0.00 in0.0 mm 0.05 in1.3 mm
03:00 PM 51.8°F11.0°C 36.6°F2.6°C 56% 7.7 mph WNW12.4 kmh WNW 15.7 mph25.3 kmh 29.83 in1010.2 mb 0.00 in0.0 mm 0.00 in0.0 mm 0.05 in1.3 mm
03:15 PM 51.3°F10.7°C 35.2°F1.8°C 54% 7.0 mph NW11.3 kmh NW 16.5 mph26.6 kmh 29.83 in1010.2 mb 0.00 in0.0 mm 0.00 in0.0 mm 0.05 in1.3 mm
03:30 PM 51.3°F10.7°C 35.2°F1.8°C 54% 7.0 mph NW11.3 kmh NW 16.1 mph25.9 kmh 29.86 in1011.2 mb 0.00 in0.0 mm 0.00 in0.0 mm 0.05 in1.3 mm
03:45 PM 50.7°F10.4°C 34.7°F1.5°C 54% 5.5 mph WNW8.9 kmh WNW 10.0 mph16.1 kmh 29.86 in1011.2 mb 0.00 in0.0 mm 0.00 in0.0 mm 0.05 in1.3 mm
04:00 PM 50.2°F10.1°C 34.2°F1.2°C 54% 4.4 mph WNW7.1 kmh WNW 9.3 mph15.0 kmh 29.86 in1011.2 mb 0.00 in0.0 mm 0.00 in0.0 mm 0.05 in1.3 mm
04:15 PM 49.8°F9.9°C 34.3°F1.3°C 55% 2.9 mph WNW4.7 kmh WNW 6.8 mph10.9 kmh 29.89 in1012.2 mb 0.00 in0.0 mm 0.00 in0.0 mm 0.05 in1.3 mm
04:30 PM 49.3°F9.6°C 34.2°F1.2°C 56% 4.1 mph W6.6 kmh W 8.9 mph14.3 kmh 29.89 in1012.2 mb 0.00 in0.0 mm 0.00 in0.0 mm 0.05 in1.3 mm
04:45 PM 49.1°F9.5°C 34.1°F1.2°C 56% 5.2 mph W8.4 kmh W 10.7 mph17.2 kmh 29.86 in1011.2 mb 0.00 in0.0 mm 0.00 in0.0 mm 0.05 in1.3 mm
05:00 PM 49.1°F9.5°C 34.1°F1.2°C 56% 3.2 mph W5.1 kmh W 9.7 mph15.6 kmh 29.89 in1012.2 mb 0.00 in0.0 mm 0.00 in0.0 mm 0.05 in1.3 mm
05:15 PM 48.7°F9.3°C 33.7°F0.9°C 56% 4.1 mph W6.6 kmh W 10.4 mph16.7 kmh 29.89 in1012.2 mb 0.00 in0.0 mm 0.00 in0.0 mm 0.05 in1.3 mm
05:30 PM 48.4°F9.1°C 33.8°F1.0°C 57% 3.5 mph W5.6 kmh W 9.7 mph15.6 kmh 29.89 in1012.2 mb 0.00 in0.0 mm 0.00 in0.0 mm 0.05 in1.3 mm
05:45 PM 48.0°F8.9°C 33.5°F0.8°C 57% 4.2 mph W6.8 kmh W 12.5 mph20.1 kmh 29.89 in1012.2 mb 0.00 in0.0 mm 0.00 in0.0 mm 0.05 in1.3 mm
06:00 PM 47.3°F8.5°C 33.3°F0.7°C 58% 3.6 mph W5.8 kmh W 12.5 mph20.1 kmh 29.89 in1012.2 mb 0.00 in0.0 mm 0.00 in0.0 mm 0.05 in1.3 mm
06:15 PM 46.6°F8.1°C 33.0°F0.6°C 59% 2.3 mph W3.7 kmh W 8.6 mph13.8 kmh 29.92 in1013.2 mb 0.00 in0.0 mm 0.00 in0.0 mm 0.05 in1.3 mm
06:30 PM 45.9°F7.7°C 32.7°F0.4°C 60% 2.3 mph W3.7 kmh W 7.5 mph12.1 kmh 29.92 in1013.2 mb 0.00 in0.0 mm 0.00 in0.0 mm 0.05 in1.3 mm
06:45 PM 45.3°F7.4°C 32.7°F0.4°C 61% 0.9 mph W1.4 kmh W 5.4 mph8.7 kmh 29.92 in1013.2 mb 0.00 in0.0 mm 0.00 in0.0 mm 0.05 in1.3 mm
07:00 PM 44.8°F7.1°C 32.1°F0.1°C 61% Calm Calm -- 29.92 in1013.2 mb 0.00 in0.0 mm 0.00 in0.0 mm 0.05 in1.3 mm
07:15 PM 44.6°F7.0°C 32.4°F0.2°C 62% 0.9 mph W1.4 kmh W 6.4 mph10.3 kmh 29.92 in1013.2 mb 0.00 in0.0 mm 0.00 in0.0 mm 0.05 in1.3 mm
07:30 PM 44.2°F6.8°C 32.4°F0.2°C 63% Calm Calm -- 29.92 in1013.2 mb 0.00 in0.0 mm 0.00 in0.0 mm 0.05 in1.3 mm
07:45 PM 44.1°F6.7°C 32.3°F0.2°C 63% Calm Calm -- 29.92 in1013.2 mb 0.00 in0.0 mm 0.00 in0.0 mm 0.05 in1.3 mm
08:00 PM 44.2°F6.8°C 32.8°F0.4°C 64% 2.0 mph W3.2 kmh W 6.4 mph10.3 kmh 29.92 in1013.2 mb 0.00 in0.0 mm 0.00 in0.0 mm 0.05 in1.3 mm
08:15 PM 44.6°F7.0°C 33.9°F1.1°C 66% 3.7 mph W6.0 kmh W 10.7 mph17.2 kmh 29.92 in1013.2 mb 0.00 in0.0 mm 0.00 in0.0 mm 0.05 in1.3 mm
08:30 PM 45.7°F7.6°C 35.7°F2.1°C 68% 5.8 mph W9.3 kmh W 14.0 mph22.5 kmh 29.92 in1013.2 mb 0.00 in0.0 mm 0.00 in0.0 mm 0.05 in1.3 mm
08:45 PM 46.2°F7.9°C 35.9°F2.2°C 67% 4.7 mph W7.6 kmh W 12.9 mph20.8 kmh 29.92 in1013.2 mb 0.00 in0.0 mm 0.00 in0.0 mm 0.05 in1.3 mm
09:00 PM 46.4°F8.0°C 36.0°F2.2°C 67% 3.5 mph W5.6 kmh W 10.7 mph17.2 kmh 29.89 in1012.2 mb 0.00 in0.0 mm 0.00 in0.0 mm 0.05 in1.3 mm
09:15 PM 47.1°F8.4°C 37.5°F3.1°C 69% 5.2 mph WNW8.4 kmh WNW 12.2 mph19.6 kmh 29.89 in1012.2 mb 0.00 in0.0 mm 0.00 in0.0 mm 0.05 in1.3 mm
09:30 PM 47.3°F8.5°C 37.6°F3.1°C 69% 4.9 mph W7.9 kmh W 12.5 mph20.1 kmh 29.89 in1012.2 mb 0.00 in0.0 mm 0.00 in0.0 mm 0.05 in1.3 mm
09:45 PM 46.9°F8.3°C 37.3°F2.9°C 69% 3.8 mph W6.1 kmh W 9.3 mph15.0 kmh 29.92 in1013.2 mb 0.00 in0.0 mm 0.00 in0.0 mm 0.05 in1.3 mm
10:00 PM 46.6°F8.1°C 36.6°F2.6°C 68% 4.2 mph W6.8 kmh W 9.3 mph15.0 kmh 29.89 in1012.2 mb 0.00 in0.0 mm 0.00 in0.0 mm 0.05 in1.3 mm
10:15 PM 46.9°F8.3°C 37.3°F2.9°C 69% 4.6 mph W7.4 kmh W 10.0 mph16.1 kmh 29.92 in1013.2 mb 0.00 in0.0 mm 0.00 in0.0 mm 0.05 in1.3 mm
10:30 PM 46.9°F8.3°C 37.3°F2.9°C 69% 4.9 mph W7.9 kmh W 13.6 mph21.9 kmh 29.92 in1013.2 mb 0.00 in0.0 mm 0.00 in0.0 mm 0.05 in1.3 mm
10:45 PM 47.3°F8.5°C 38.0°F3.3°C 70% 5.4 mph W8.7 kmh W 12.5 mph20.1 kmh 29.92 in1013.2 mb 0.00 in0.0 mm 0.00 in0.0 mm 0.05 in1.3 mm
11:00 PM 47.3°F8.5°C 38.0°F3.3°C 70% 3.5 mph W5.6 kmh W 9.7 mph15.6 kmh 29.95 in1014.2 mb 0.00 in0.0 mm 0.00 in0.0 mm 0.05 in1.3 mm
11:15 PM 46.9°F8.3°C 38.0°F3.3°C 71% 4.2 mph W6.8 kmh W 12.9 mph20.8 kmh 29.95 in1014.2 mb 0.00 in0.0 mm 0.00 in0.0 mm 0.05 in1.3 mm
11:30 PM 46.8°F8.2°C 37.9°F3.3°C 71% 2.7 mph W4.3 kmh W 9.3 mph15.0 kmh 29.95 in1014.2 mb 0.00 in0.0 mm 0.00 in0.0 mm 0.05 in1.3 mm
11:45 PM 46.6°F8.1°C 38.0°F3.3°C 72% 2.8 mph W4.5 kmh W 9.7 mph15.6 kmh 29.92 in1013.2 mb 0.00 in0.0 mm 0.00 in0.0 mm 0.05 in1.3 mm